Time;durP1;ratioP1;P1;durP2;ratioP2;P2;SDS_P1;SDS_P2;PMS_P1;PMS_P2;Temp;Humidity;BMP_temperature;BMP_pressure;BME280_temperature;BME280_humidity;BME280_pressure;Samples;Min_cycle;Max_cycle;Signal;HPM_P1;HPM_P2
2021/10/14 00:01:01;;;;;;;2.33;1.30;;;20.60;47.20;;;24.63;31.39;101768.16;5092847;28;20051;-9
2021/10/14 00:03:27;;;;;;;2.95;1.48;;;20.70;47.20;;;24.63;31.28;101759.28;5092906;28;20055;-9
2021/10/14 00:05:52;;;;;;;2.00;1.20;;;20.70;47.20;;;24.63;31.13;101756.63;5093224;28;20071;-9
2021/10/14 00:08:18;;;;;;;1.38;1.00;;;20.60;47.10;;;24.63;31.30;101757.47;5092514;28;20044;-9
2021/10/14 00:10:44;;;;;;;1.88;1.40;;;20.60;47.20;;;24.63;31.12;101761.97;5092630;28;20048;-9
2021/10/14 00:13:10;;;;;;;1.77;1.20;;;20.70;47.20;;;24.65;31.22;101760.06;5092623;28;20094;-9
2021/10/14 00:15:35;;;;;;;1.90;1.48;;;20.70;47.20;;;24.64;31.20;101751.19;5092689;28;20051;-9
2021/10/14 00:18:02;;;;;;;1.30;1.13;;;20.60;47.10;;;24.60;31.23;101757.66;5092952;28;20055;-9
2021/10/14 00:20:29;;;;;;;1.88;1.23;;;20.60;47.20;;;24.60;31.19;101763.84;5092424;28;20052;-9
2021/10/14 00:22:55;;;;;;;1.33;1.20;;;20.70;47.20;;;24.60;31.47;101761.19;5092541;28;20040;-9
2021/10/14 00:25:22;;;;;;;1.58;1.25;;;20.60;47.20;;;24.58;31.45;101759.56;5073620;28;20044;-9
2021/10/14 00:27:51;;;;;;;1.17;0.90;;;20.60;47.30;;;24.57;31.50;101758.72;5092245;28;20055;-9
2021/10/14 00:30:18;;;;;;;2.05;1.00;;;20.60;47.20;;;24.60;31.27;101768.34;5092186;28;20557;-9
2021/10/14 00:32:44;;;;;;;2.13;1.02;;;20.60;47.10;;;24.58;31.43;101756.91;5092235;28;20491;-9
2021/10/14 00:35:11;;;;;;;1.33;1.00;;;20.60;47.20;;;24.63;31.36;101761.97;5092413;28;20127;-9
2021/10/14 00:37:37;;;;;;;2.58;1.40;;;20.70;47.70;;;24.60;31.30;101753.16;5093150;28;20488;-9
2021/10/14 00:40:05;;;;;;;2.80;1.50;;;20.60;47.20;;;24.58;31.34;101749.72;5073879;28;20412;-9
2021/10/14 00:42:30;;;;;;;2.58;1.13;;;20.60;47.30;;;24.60;31.10;101750.50;5095807;28;20058;-9
2021/10/14 00:44:57;;;;;;;1.70;1.30;;;20.60;47.30;;;24.62;31.39;101755.75;5095856;28;20396;-9
2021/10/14 00:47:31;;;;;;;1.25;1.00;;;20.60;47.30;;;24.61;31.31;101748.69;5095900;28;20476;-9
2021/10/14 00:49:58;;;;;;;2.15;1.30;;;20.60;47.20;;;24.62;31.32;101753.06;5095655;28;20056;-9
2021/10/14 00:52:25;;;;;;;2.55;1.52;;;20.70;47.20;;;24.62;31.33;101739.69;5095724;28;20075;-9
2021/10/14 00:54:52;;;;;;;1.38;1.02;;;20.60;47.20;;;24.62;31.31;101750.38;5096020;28;20048;-9
2021/10/14 00:57:19;;;;;;;1.13;0.95;;;20.60;47.50;;;24.58;31.10;101747.06;5095596;28;20044;-9
2021/10/14 00:59:45;;;;;;;1.10;1.00;;;20.50;47.50;;;24.58;31.15;101730.16;5095567;28;20052;-9
2021/10/14 01:02:11;;;;;;;2.22;1.20;;;20.60;47.50;;;24.59;31.27;101740.78;5095516;28;20036;-9
2021/10/14 01:04:37;;;;;;;1.30;1.20;;;20.50;47.50;;;24.59;31.49;101732.75;5095909;28;20443;-9
2021/10/14 01:07:04;;;;;;;2.22;1.20;;;20.50;47.60;;;24.57;31.46;101729.31;5095494;28;20052;-9
2021/10/14 01:09:29;;;;;;;1.30;1.05;;;20.50;47.50;;;24.54;31.48;101720.56;5095310;28;20048;-9
2021/10/14 01:12:01;;;;;;;1.52;1.30;;;20.50;47.50;;;24.55;31.43;101727.69;5095542;28;20062;-9
2021/10/14 01:14:27;;;;;;;2.17;1.05;;;20.50;47.50;;;24.55;31.31;101730.34;5095259;28;20093;-9
2021/10/14 01:16:52;;;;;;;0.95;0.90;;;20.50;47.50;;;24.55;31.52;101731.22;5095338;28;20052;-9
2021/10/14 01:19:18;;;;;;;1.88;1.23;;;20.50;47.60;;;24.55;31.54;101733.03;5095348;28;20087;-9
2021/10/14 01:21:44;;;;;;;1.92;1.00;;;20.40;47.70;;;24.53;31.48;101733.09;5095295;28;20051;-9
2021/10/14 01:24:10;;;;;;;1.88;1.40;;;20.40;47.70;;;24.54;31.53;101740.16;5095293;28;20400;-9
2021/10/14 01:26:39;;;;;;;1.48;1.17;;;20.40;47.80;;;24.50;31.42;101724.41;5095201;28;20095;-9
2021/10/14 01:29:04;;;;;;;1.10;1.00;;;20.40;47.80;;;24.53;31.57;101730.41;5094993;28;20036;-9
2021/10/14 01:31:30;;;;;;;1.13;1.02;;;20.40;47.80;;;24.52;31.65;101728.69;5095135;28;20051;-9
2021/10/14 01:33:56;;;;;;;1.55;1.20;;;20.40;47.80;;;24.54;31.38;101731.28;5095702;28;20047;-9
2021/10/14 01:36:23;;;;;;;1.73;1.10;;;20.40;47.80;;;24.54;31.41;101736.63;5095413;28;20048;-9
2021/10/14 01:38:49;;;;;;;1.55;1.23;;;20.50;47.70;;;24.55;31.63;101731.22;5095554;28;20052;-9
2021/10/14 01:41:15;;;;;;;1.20;1.10;;;20.50;47.60;;;24.52;31.46;101730.50;5095012;28;20522;-9
2021/10/14 01:43:41;;;;;;;1.35;0.88;;;20.50;47.70;;;24.54;31.37;101734.81;5095557;28;20056;-9
2021/10/14 01:46:07;;;;;;;1.52;0.90;;;20.60;47.60;;;24.52;31.44;101730.50;5094912;28;20040;-9
2021/10/14 01:48:32;;;;;;;1.13;0.90;;;20.50;47.60;;;24.52;31.42;101731.38;5094415;28;20189;-9
2021/10/14 01:51:00;;;;;;;2.15;1.40;;;20.50;47.60;;;24.53;31.34;101735.78;5094194;28;20052;-9
2021/10/14 01:53:26;;;;;;;1.23;1.00;;;20.50;47.50;;;24.53;31.58;101735.78;5094750;28;20048;-9
2021/10/14 01:55:53;;;;;;;1.73;1.05;;;20.50;47.50;;;24.51;31.44;101732.34;5077208;28;20044;-9
2021/10/14 01:58:20;;;;;;;0.80;0.80;;;20.50;47.50;;;24.51;31.46;101731.50;5094577;28;20135;-9
2021/10/14 02:00:51;;;;;;;1.20;1.05;;;20.50;47.60;;;24.53;31.49;101735.78;5094706;28;20048;-9
2021/10/14 02:03:17;;;;;;;1.40;1.00;;;20.50;47.50;;;24.56;31.38;101735.63;5094940;28;20101;-9
2021/10/14 02:05:44;;;;;;;1.48;1.20;;;20.50;47.60;;;24.55;31.44;101731.22;5094708;28;20472;-9
2021/10/14 02:08:09;;;;;;;1.60;1.10;;;20.50;47.60;;;24.55;31.42;101733.88;5094779;28;20388;-9
2021/10/14 02:10:35;;;;;;;1.20;1.10;;;20.50;47.70;;;24.56;31.38;101732.09;5094466;28;20044;-9
2021/10/14 02:13:03;;;;;;;1.38;1.00;;;20.50;47.60;;;24.55;31.38;101731.22;5094409;28;20044;-10
2021/10/14 02:15:30;;;;;;;2.40;1.10;;;20.60;47.50;;;24.51;31.65;101728.81;5094474;28;20109;-9
2021/10/14 02:17:57;;;;;;;1.13;1.00;;;20.50;47.60;;;24.54;31.53;101729.47;5076325;28;20484;-9
2021/10/14 02:20:23;;;;;;;1.45;1.10;;;20.50;47.60;;;24.52;31.43;101725.16;5094189;28;20059;-9
2021/10/14 02:22:49;;;;;;;1.15;1.02;;;20.50;47.70;;;24.55;31.59;101725.00;5094447;28;20056;-9
2021/10/14 02:25:17;;;;;;;1.20;1.00;;;20.50;47.70;;;24.54;31.51;101721.47;5094213;28;20118;-9
2021/10/14 02:27:44;;;;;;;1.17;1.02;;;20.50;47.70;;;24.55;31.58;101731.22;5094130;28;20189;-9
2021/10/14 02:30:12;;;;;;;1.60;1.23;;;20.50;47.60;;;24.53;31.68;101725.06;5093995;28;20044;-9
2021/10/14 02:32:38;;;;;;;1.98;1.17;;;20.50;47.80;;;24.52;31.68;101714.47;5094033;28;20137;-9
2021/10/14 02:35:06;;;;;;;1.20;1.08;;;20.50;47.80;;;24.51;31.33;101716.31;5094654;28;20052;-9
2021/10/14 02:37:31;;;;;;;1.23;1.00;;;20.40;47.90;;;24.51;31.44;101718.13;5094129;28;20044;-9
2021/10/14 02:39:57;;;;;;;0.98;0.90;;;20.40;47.90;;;24.51;31.38;101712.78;5094068;28;20060;-9
2021/10/14 02:42:23;;;;;;;1.10;1.00;;;20.50;47.80;;;24.52;31.58;101719.81;5093954;28;20404;-9
2021/10/14 02:44:49;;;;;;;1.10;1.00;;;20.50;47.80;;;24.50;31.61;101716.41;5094359;28;20476;-9
2021/10/14 02:47:15;;;;;;;1.25;0.93;;;20.50;47.90;;;24.53;31.71;101726.91;5093898;28;20396;-9
2021/10/14 02:49:40;;;;;;;1.60;1.17;;;20.50;47.80;;;24.51;31.47;101724.31;5093805;28;20048;-9
2021/10/14 02:52:06;;;;;;;1.17;0.95;;;20.50;47.50;;;24.55;31.64;101723.19;5094112;28;20048;-9
2021/10/14 02:54:32;;;;;;;0.98;0.90;;;20.60;47.40;;;24.53;31.57;101717.06;5093775;28;20500;-9
2021/10/14 02:56:58;;;;;;;1.38;1.10;;;20.70;47.20;;;24.55;31.41;101711.66;5093755;28;20048;-9
2021/10/14 02:59:24;;;;;;;1.35;1.05;;;20.80;47.10;;;24.56;31.69;101721.38;5093671;28;20075;-9
2021/10/14 03:01:50;;;;;;;1.58;0.90;;;20.80;47.20;;;24.58;31.67;101717.66;5093547;28;20047;-9
2021/10/14 03:04:16;;;;;;;1.10;1.00;;;20.80;47.10;;;24.58;31.46;101714.97;5093640;28;20079;-9
2021/10/14 03:06:42;;;;;;;2.08;1.20;;;20.80;47.00;;;24.60;31.38;101713.06;5094209;28;20135;-9
2021/10/14 03:09:08;;;;;;;0.93;0.73;;;20.90;47.00;;;24.60;31.59;101712.19;5093364;28;20048;-9
2021/10/14 03:11:33;;;;;;;1.38;1.15;;;20.90;47.00;;;24.62;31.40;101706.75;5075276;28;20044;-9
2021/10/14 03:13:59;;;;;;;0.80;0.80;;;20.80;47.20;;;24.65;31.63;101709.25;5093574;28;20480;-10
2021/10/14 03:16:25;;;;;;;3.33;1.13;;;20.80;47.20;;;24.66;31.49;101709.16;5094030;28;20044;-9
2021/10/14 03:18:55;;;;;;;1.30;0.90;;;20.80;47.20;;;24.65;31.55;101702.06;5093232;28;20100;-9
2021/10/14 03:21:21;;;;;;;1.10;1.00;;;20.80;47.30;;;24.65;31.51;101702.06;5093345;28;20544;-9
2021/10/14 03:23:48;;;;;;;1.20;0.90;;;20.80;47.30;;;24.68;31.50;101696.53;5093721;28;20079;-9
2021/10/14 03:26:14;;;;;;;1.30;0.85;;;20.80;47.30;;;24.70;31.42;101693.75;5093351;28;20055;-9
2021/10/14 03:28:40;;;;;;;0.80;0.80;;;20.80;47.20;;;24.74;31.60;101695.25;5093281;28;20055;-9
2021/10/14 03:31:06;;;;;;;0.75;0.70;;;20.90;47.20;;;24.76;31.39;101699.56;5093039;28;20051;-9
2021/10/14 03:33:32;;;;;;;1.23;0.80;;;21.00;47.10;;;24.77;31.60;101697.75;5093255;28;20488;-9
2021/10/14 03:35:58;;;;;;;0.85;0.85;;;20.90;47.00;;;24.77;31.64;101698.63;5093147;28;20483;-9
2021/10/14 03:38:24;;;;;;;1.02;0.90;;;20.90;47.00;;;24.76;31.38;101683.53;5093173;28;20059;-9
2021/10/14 03:40:50;;;;;;;0.75;0.75;;;21.00;47.00;;;24.82;31.51;101692.94;5093093;28;20112;-9
2021/10/14 03:43:16;;;;;;;0.90;0.80;;;21.00;47.00;;;24.81;31.50;101693.94;5093404;28;20048;-9
2021/10/14 03:45:43;;;;;;;1.25;0.80;;;21.00;47.10;;;24.82;31.40;101684.91;5093514;28;20040;-9
2021/10/14 03:48:09;;;;;;;1.10;0.90;;;21.00;47.00;;;24.84;31.24;101696.41;5093010;28;20043;-9
2021/10/14 03:50:34;;;;;;;0.90;0.90;;;21.00;46.80;;;24.83;31.33;101691.16;5092954;28;20544;-9
2021/10/14 03:53:01;;;;;;;1.00;0.90;;;21.10;46.80;;;24.85;31.27;101692.75;5074629;28;20059;-9
2021/10/14 03:55:28;;;;;;;1.05;0.90;;;21.00;47.30;;;24.83;31.37;101694.69;5093357;28;20048;-9
2021/10/14 03:57:55;;;;;;;1.00;0.90;;;21.10;46.70;;;24.85;31.31;101690.06;5092707;28;20094;-9
2021/10/14 04:00:22;;;;;;;0.80;0.80;;;21.10;46.80;;;24.89;31.22;101696.06;5092720;28;20480;-9
2021/10/14 04:02:48;;;;;;;0.93;0.80;;;21.10;46.80;;;24.89;31.22;101696.06;5092974;28;20048;-9
2021/10/14 04:05:14;;;;;;;1.45;1.00;;;21.10;46.80;;;24.88;31.23;101695.22;5092616;28;20056;-9
2021/10/14 04:07:40;;;;;;;0.80;0.80;;;21.10;46.70;;;24.88;31.31;101697.06;5093176;28;20134;-9
2021/10/14 04:10:09;;;;;;;0.95;0.80;;;21.10;46.70;;;24.88;31.32;101695.22;5092450;28;20048;-9
2021/10/14 04:12:35;;;;;;;0.80;0.77;;;21.10;46.70;;;24.88;31.17;101691.72;5091867;28;20511;-9
2021/10/14 04:15:01;;;;;;;1.38;1.00;;;21.10;46.70;;;24.88;31.25;101691.72;5092969;28;20050;-9
2021/10/14 04:17:27;;;;;;;0.70;0.70;;;21.10;46.70;;;24.86;31.37;101683.78;5092669;28;20060;-9
2021/10/14 04:19:52;;;;;;;0.70;0.70;;;21.10;46.70;;;24.86;31.41;101686.47;5092371;28;20056;-9
2021/10/14 04:22:19;;;;;;;0.80;0.80;;;21.10;46.70;;;24.85;31.45;101682.06;5092904;28;20075;-9
2021/10/14 04:24:47;;;;;;;0.95;0.90;;;21.10;46.80;;;24.84;31.29;101674.13;5092480;28;20048;-9
2021/10/14 04:27:13;;;;;;;0.80;0.80;;;21.10;46.90;;;24.84;31.22;101671.44;5092372;28;20040;-9
2021/10/14 04:29:38;;;;;;;1.15;0.85;;;21.00;46.80;;;24.84;31.38;101676.81;5092366;28;20434;-9
2021/10/14 04:32:09;;;;;;;1.17;0.90;;;21.00;46.80;;;24.85;31.38;101679.38;5092263;28;20092;-9
2021/10/14 04:34:35;;;;;;;1.03;0.87;;;21.00;46.80;;;24.85;31.33;101676.69;5092777;28;20086;-9
2021/10/14 04:37:06;;;;;;;0.70;0.70;;;21.00;46.80;;;24.84;31.40;101679.47;5092650;28;20044;-9
2021/10/14 04:39:37;;;;;;;1.00;0.90;;;21.00;46.80;;;24.82;31.43;101684.91;5092322;28;20052;-9
2021/10/14 04:42:11;;;;;;;1.03;0.93;;;21.00;46.90;;;24.82;31.36;101681.41;5092761;28;20489;-9
2021/10/14 04:44:37;;;;;;;0.88;0.88;;;21.00;47.10;;;24.82;31.19;101673.38;5092452;28;20040;-9
2021/10/14 04:47:04;;;;;;;0.60;0.60;;;21.00;47.00;;;24.82;31.42;101676.91;5092241;28;20044;-9
2021/10/14 04:49:30;;;;;;;0.80;0.80;;;21.00;46.90;;;24.82;31.31;101676.06;5092203;28;20048;-9
2021/10/14 04:51:57;;;;;;;0.80;0.75;;;21.00;46.90;;;24.78;31.46;101667.38;5092185;28;20090;-9
2021/10/14 04:54:22;;;;;;;0.98;0.80;;;21.00;46.90;;;24.80;31.48;101665.44;5092173;28;20051;-9
2021/10/14 04:56:48;;;;;;;0.73;0.73;;;21.00;46.90;;;24.78;31.32;101670.03;5092251;28;20052;-9
2021/10/14 04:59:14;;;;;;;0.77;0.75;;;21.00;47.00;;;24.81;31.27;101668.97;5092405;28;20522;-9
2021/10/14 05:01:39;;;;;;;0.88;0.85;;;21.00;47.00;;;24.77;31.46;101660.28;5092381;28;20376;-9
2021/10/14 05:04:05;;;;;;;1.48;0.82;;;21.00;46.90;;;24.80;31.40;101670.78;5092096;28;20125;-9
2021/10/14 05:06:31;;;;;;;1.13;0.80;;;21.00;47.00;;;24.79;31.30;101663.72;5092307;28;20369;-9
2021/10/14 05:08:57;;;;;;;1.00;0.80;;;21.00;47.00;;;24.80;31.37;101668.13;5091807;28;20097;-9
2021/10/14 05:11:23;;;;;;;0.93;0.80;;;21.00;47.00;;;24.76;31.33;101662.13;5092269;28;20084;-9
2021/10/14 05:13:48;;;;;;;0.60;0.60;;;21.00;47.10;;;24.76;31.45;101655.94;5091870;28;20121;-9
2021/10/14 05:16:14;;;;;;;0.77;0.77;;;21.00;47.10;;;24.78;31.33;101654.84;5091867;28;20044;-9
2021/10/14 05:18:40;;;;;;;1.10;0.88;;;21.00;47.10;;;24.76;31.48;101659.44;5091930;28;20044;-10
2021/10/14 05:21:06;;;;;;;0.68;0.68;;;21.00;47.10;;;24.76;31.40;101654.09;5091843;28;20048;-9
2021/10/14 05:23:32;;;;;;;0.70;0.70;;;21.00;47.10;;;24.77;31.52;101658.50;5091852;28;20056;-9
2021/10/14 05:25:57;;;;;;;0.80;0.80;;;21.00;47.10;;;24.76;31.31;101658.59;5094612;28;20044;-9
2021/10/14 05:28:23;;;;;;;0.70;0.60;;;21.00;47.10;;;24.76;31.54;101655.94;5095712;28;20085;-9
2021/10/14 05:30:49;;;;;;;0.80;0.80;;;21.00;47.10;;;24.74;31.43;101655.16;5076674;28;20048;-9
2021/10/14 05:33:15;;;;;;;0.80;0.80;;;21.00;47.20;;;24.75;31.48;101660.41;5095138;28;20470;-9
2021/10/14 05:35:41;;;;;;;0.68;0.68;;;21.00;47.10;;;24.75;31.37;101649.69;5094967;28;20534;-9
2021/10/14 05:38:07;;;;;;;1.15;0.80;;;20.90;47.20;;;24.76;31.60;101661.28;5095356;28;20052;-9
2021/10/14 05:40:33;;;;;;;2.17;0.88;;;21.00;47.10;;;24.74;31.50;101658.69;5094819;28;20122;-9
2021/10/14 05:43:01;;;;;;;0.70;0.60;;;21.00;47.20;;;24.73;31.49;101653.44;5095053;28;20048;-9
2021/10/14 05:45:28;;;;;;;1.45;0.90;;;20.90;47.20;;;24.75;31.67;101655.03;5094888;28;20155;-9
2021/10/14 05:47:54;;;;;;;0.80;0.80;;;20.90;47.40;;;24.74;31.69;101653.34;5094915;28;20061;-9
2021/10/14 05:50:20;;;;;;;0.60;0.60;;;20.90;47.40;;;24.76;31.41;101661.28;5094550;28;20048;-9
2021/10/14 05:52:46;;;;;;;0.95;0.75;;;20.90;47.40;;;24.72;31.58;101657.91;5094665;28;20052;-9
2021/10/14 05:55:11;;;;;;;1.67;1.00;;;20.90;47.30;;;24.74;31.67;101657.81;5094950;28;20052;-9
2021/10/14 05:57:37;;;;;;;0.68;0.68;;;20.90;47.20;;;24.75;31.55;101662.22;5094621;28;20047;-9
2021/10/14 06:00:04;;;;;;;0.90;0.82;;;21.00;47.20;;;24.75;31.70;101654.19;5094521;28;20051;-9
2021/10/14 06:02:30;;;;;;;1.05;0.80;;;21.00;47.20;;;24.73;31.73;101654.28;5094641;28;20412;-9
2021/10/14 06:04:56;;;;;;;1.05;0.80;;;21.00;47.20;;;24.74;31.51;101655.16;5094981;28;20055;-9
2021/10/14 06:07:22;;;;;;;1.17;0.73;;;20.90;47.30;;;24.75;31.50;101663.06;5094568;28;20552;-9
2021/10/14 06:09:47;;;;;;;0.90;0.80;;;20.90;47.20;;;24.75;31.59;101654.19;5094435;28;20048;-9
2021/10/14 06:12:13;;;;;;;0.75;0.75;;;21.00;47.30;;;24.76;31.72;101650.56;5076735;28;20056;-9
2021/10/14 06:14:40;;;;;;;1.25;0.80;;;21.00;47.30;;;24.74;31.67;101652.47;5094955;28;20044;-9
2021/10/14 06:17:06;;;;;;;0.70;0.70;;;21.00;47.30;;;24.76;31.67;101661.28;5094412;28;20044;-9
2021/10/14 06:19:32;;;;;;;1.85;1.13;;;21.00;47.20;;;24.78;31.59;101659.34;5092931;28;20067;-9
2021/10/14 06:21:58;;;;;;;1.52;0.80;;;21.00;47.20;;;24.78;31.68;101651.31;5094345;28;20048;-9
2021/10/14 06:24:23;;;;;;;0.65;0.65;;;21.00;47.30;;;24.78;31.49;101660.19;5094574;28;20420;-9
2021/10/14 06:26:49;;;;;;;0.85;0.70;;;21.00;47.30;;;24.76;31.61;101651.44;5094256;28;20189;-9
2021/10/14 06:29:15;;;;;;;0.63;0.63;;;21.00;47.20;;;24.77;31.73;101649.59;5094550;28;20047;-9
2021/10/14 06:31:40;;;;;;;0.70;0.70;;;21.00;47.30;;;24.80;31.69;101648.56;5094395;28;20044;-9
2021/10/14 06:34:06;;;;;;;1.25;1.05;;;21.00;47.20;;;24.80;31.57;101648.56;5094162;28;20048;-9
2021/10/14 06:36:32;;;;;;;0.60;0.60;;;21.00;47.30;;;24.79;31.85;101650.34;5093466;28;20044;-9
2021/10/14 06:38:58;;;;;;;2.00;0.60;;;21.00;47.20;;;24.78;31.85;101646.81;5094027;28;20044;-9
2021/10/14 06:41:24;;;;;;;0.75;0.70;;;21.00;47.20;;;24.82;31.42;101654.66;5094131;28;20040;-9
2021/10/14 06:43:49;;;;;;;0.93;0.85;;;21.00;47.20;;;24.78;31.57;101645.97;5093975;28;20450;-9
2021/10/14 06:46:15;;;;;;;1.05;0.77;;;21.10;47.30;;;24.81;31.65;101648.44;5093949;28;20071;-9
2021/10/14 06:48:41;;;;;;;1.23;0.82;;;21.10;47.20;;;24.81;31.61;101653.81;5093779;28;20483;-9
2021/10/14 06:51:07;;;;;;;0.80;0.70;;;21.10;47.20;;;24.84;31.54;101653.59;5094375;28;20055;-9
2021/10/14 06:53:34;;;;;;;0.85;0.65;;;21.10;47.30;;;24.84;31.66;101650.94;5093763;28;20052;-9
2021/10/14 06:56:00;;;;;;;1.05;0.77;;;21.10;47.30;;;24.82;31.74;101654.66;5094189;28;20044;-9
2021/10/14 06:58:26;;;;;;;0.65;0.65;;;21.10;47.20;;;24.85;31.66;101646.44;5093827;28;20043;-9
2021/10/14 07:00:52;;;;;;;0.90;0.68;;;21.10;47.20;;;24.85;31.57;101646.44;5093754;28;20052;-9
2021/10/14 07:03:18;;;;;;;1.23;0.70;;;21.10;47.20;;;24.87;31.66;101648.03;5093686;28;20044;-9
2021/10/14 07:05:43;;;;;;;0.70;0.70;;;21.10;47.20;;;24.87;31.81;101649.84;5093670;28;20373;-9
2021/10/14 07:08:09;;;;;;;0.70;0.70;;;21.10;47.20;;;24.87;31.79;101640.00;5093619;28;20492;-9
2021/10/14 07:10:35;;;;;;;1.33;0.70;;;21.10;47.40;;;24.88;31.66;101643.56;5093505;28;20052;-9
2021/10/14 07:13:08;;;;;;;0.75;0.68;;;21.10;47.30;;;24.90;31.76;101653.19;5093888;28;20131;-9
2021/10/14 07:15:34;;;;;;;1.17;0.70;;;21.10;47.30;;;24.89;31.51;101646.13;5093488;28;21231;-9
2021/10/14 07:18:00;;;;;;;2.25;0.70;;;21.10;47.20;;;24.91;31.78;101638.00;5093324;28;20070;-9
2021/10/14 07:20:26;;;;;;;1.75;0.65;;;21.10;47.10;;;24.93;31.61;101644.09;5093294;28;20047;-9
2021/10/14 07:22:53;;;;;;;1.08;0.70;;;21.20;47.20;;;24.93;31.84;101649.44;5093846;28;20044;-9
2021/10/14 07:25:19;;;;;;;0.80;0.80;;;21.20;47.20;;;24.90;31.66;101646.97;5093289;28;20055;-9
2021/10/14 07:27:44;;;;;;;0.77;0.70;;;21.10;47.20;;;24.90;31.77;101638.94;5092937;28;20048;-9
2021/10/14 07:30:11;;;;;;;1.00;0.70;;;21.10;47.20;;;24.91;31.69;101652.22;5093355;28;20059;-9
2021/10/14 07:32:38;;;;;;;0.80;0.73;;;21.10;47.40;;;24.93;31.77;101654.81;5093171;28;20127;-9
2021/10/14 07:35:05;;;;;;;0.50;0.50;;;21.10;47.40;;;24.90;31.79;101653.19;5059548;28;20103;-9
2021/10/14 07:37:31;;;;;;;1.40;0.80;;;21.10;47.30;;;24.91;31.69;101652.22;5092941;28;20052;-9
2021/10/14 07:39:57;;;;;;;0.75;0.70;;;21.10;47.30;;;24.93;31.68;101652.13;5093064;28;20055;-9
2021/10/14 07:42:23;;;;;;;0.77;0.70;;;21.20;47.30;;;24.94;31.77;101656.50;5074961;28;20471;-9
2021/10/14 07:44:50;;;;;;;0.68;0.65;;;21.20;47.30;;;24.94;31.90;101659.19;5093402;28;20073;-9
2021/10/14 07:47:16;;;;;;;1.15;0.73;;;21.20;47.30;;;24.95;31.72;101660.91;5092321;28;20048;-10
2021/10/14 07:49:42;;;;;;;3.30;1.00;;;21.20;47.30;;;24.92;31.78;101659.28;5092932;28;20056;-9
2021/10/14 07:52:08;;;;;;;1.15;0.90;;;21.20;47.30;;;24.94;31.70;101662.72;5092942;28;20048;-9
2021/10/14 07:54:34;;;;;;;1.02;0.70;;;21.20;47.20;;;24.95;31.66;101664.44;5093482;28;20059;-9
2021/10/14 07:57:00;;;;;;;1.00;0.70;;;21.20;47.30;;;24.95;31.61;101668.94;5092661;28;20591;-9
2021/10/14 07:59:26;;;;;;;0.85;0.60;;;21.20;47.30;;;24.95;31.81;101668.94;5092662;28;20133;-9
2021/10/14 08:01:52;;;;;;;1.13;0.70;;;21.20;47.20;;;24.95;31.80;101666.25;5074736;28;20050;-9
2021/10/14 08:04:17;;;;;;;0.60;0.57;;;21.20;47.30;;;24.98;31.69;101671.41;5093153;28;20465;-9
2021/10/14 08:06:43;;;;;;;1.48;0.73;;;21.20;47.30;;;24.97;31.68;101675.03;5092446;28;20400;-13
2021/10/14 08:09:09;;;;;;;0.60;0.60;;;21.20;47.30;;;24.96;31.80;101666.16;5092611;28;20047;-9
2021/10/14 08:11:35;;;;;;;1.25;0.95;;;21.20;47.30;;;24.97;31.60;101675.03;5092935;28;20048;-9
2021/10/14 08:14:01;;;;;;;2.60;0.80;;;21.20;47.30;;;24.97;31.78;101669.69;5092484;28;20043;-9
2021/10/14 08:16:27;;;;;;;1.35;0.80;;;21.20;47.40;;;24.99;31.64;101666.91;5092424;28;20048;-9
2021/10/14 08:18:53;;;;;;;0.85;0.85;;;21.20;47.90;;;24.98;31.74;101659.84;5092916;28;20058;-9
2021/10/14 08:21:18;;;;;;;0.85;0.80;;;21.20;47.40;;;24.97;31.72;101661.66;5074316;28;20052;-9
2021/10/14 08:23:44;;;;;;;0.98;0.80;;;21.20;47.40;;;24.96;31.69;101660.81;5092511;28;20058;-9
2021/10/14 08:26:10;;;;;;;1.15;0.70;;;21.20;47.40;;;24.98;31.70;101673.22;5092790;28;20051;-9
2021/10/14 08:28:36;;;;;;;1.45;0.70;;;21.20;47.50;;;24.99;31.85;101672.25;5092462;28;20146;-9
2021/10/14 08:31:02;;;;;;;0.70;0.70;;;21.10;47.60;;;24.99;31.84;101673.09;5089426;28;20044;-21
2021/10/14 08:33:28;;;;;;;0.98;0.60;;;21.20;47.60;;;24.99;31.77;101674.94;5091408;28;20124;-9
2021/10/14 08:35:54;;;;;;;1.17;0.82;;;21.20;47.60;;;24.99;31.90;101673.09;5092259;28;20087;-9
2021/10/14 08:38:20;;;;;;;2.15;0.70;;;21.20;47.60;;;25.00;31.95;101669.47;5067365;28;20056;-9
2021/10/14 08:40:47;;;;;;;1.40;0.90;;;21.30;47.70;;;25.00;32.25;101668.63;5091385;28;20048;-9
2021/10/14 08:43:16;;;;;;;2.42;0.90;;;21.30;47.80;;;24.99;32.22;101669.56;5091489;28;20108;-9
2021/10/14 08:45:46;;;;;;;1.90;1.20;;;21.30;48.60;;;25.02;32.26;101677.41;5091348;28;20068;-9
2021/10/14 08:48:12;;;;;;;2.22;1.08;;;21.30;48.20;;;25.03;32.20;101673.78;5092652;28;20036;-9
2021/10/14 08:50:42;;;;;;;4.20;1.27;;;21.30;48.30;;;25.02;32.35;101674.72;5091520;28;20562;-9
2021/10/14 08:53:08;;;;;;;3.13;1.25;;;21.40;48.40;;;25.06;32.42;101676.22;5091325;28;20048;-9
2021/10/14 08:55:37;;;;;;;3.42;1.30;;;21.40;48.50;;;25.05;32.28;101670.03;5069916;28;20067;-9
2021/10/14 08:58:08;;;;;;;2.83;1.38;;;21.30;48.60;;;25.07;32.47;101669.94;5091812;28;20221;-9
2021/10/14 09:00:40;;;;;;;2.33;1.63;;;21.40;48.80;;;25.06;32.55;101663.72;5094694;28;20052;-9
2021/10/14 09:03:31;;;;;;;2.20;1.33;;;21.40;49.00;;;25.09;32.47;101670.69;5094781;28;20056;-9
2021/10/14 09:05:58;;;;;;;3.72;1.50;;;21.40;49.10;;;25.07;32.73;101662.75;5093620;28;20483;-9
2021/10/14 09:08:54;;;;;;;3.33;1.67;;;21.40;49.20;;;25.07;32.63;101669.94;5094674;28;20043;-9
2021/10/14 09:11:26;;;;;;;3.50;1.40;;;21.40;49.30;;;25.10;32.79;101675.09;5065844;28;20477;-9
2021/10/14 09:14:01;;;;;;;4.82;2.05;;;21.40;49.30;;;25.08;32.88;101664.47;5094401;28;20040;-9
2021/10/14 09:16:40;;;;;;;5.35;1.70;;;21.40;49.50;;;25.10;33.11;101672.41;5094507;28;20498;-9
2021/10/14 09:19:21;;;;;;;3.47;1.40;;;21.40;49.60;;;25.08;32.99;101655.59;5094617;28;20439;-9
2021/10/14 09:21:52;;;;;;;;;;;21.40;49.70;;;25.22;32.71;101647.47;5094806;28;20047;-9
2021/10/14 09:24:37;;;;;;;5.88;1.90;;;21.40;49.70;;;25.14;32.94;101650.69;5094346;28;19990;-9
2021/10/14 09:27:13;;;;;;;4.20;1.73;;;21.40;49.80;;;25.11;33.00;101647.38;5094378;28;20085;-9
2021/10/14 09:29:40;;;;;;;3.50;1.48;;;21.40;49.80;;;25.12;33.24;101647.25;5094881;28;20048;-9
2021/10/14 09:32:15;;;;;;;3.65;1.52;;;21.40;49.80;;;25.13;33.23;101650.78;5094372;28;20085;-9
2021/10/14 09:34:46;;;;;;;5.93;1.73;;;21.40;49.80;;;25.12;33.07;101643.72;5094205;28;20492;-9
2021/10/14 09:37:17;;;;;;;5.68;1.90;;;21.50;49.70;;;25.19;33.05;101652.19;5094114;28;20476;-9
2021/10/14 09:40:07;;;;;;;5.30;1.77;;;21.50;49.60;;;25.15;33.04;101646.19;5094240;28;20483;-10
2021/10/14 09:42:58;;;;;;;2.08;1.35;;;21.50;49.30;;;25.19;33.12;101647.69;5094234;28;20097;-10
2021/10/14 09:45:31;;;;;;;2.92;1.48;;;21.50;49.30;;;25.20;32.97;101646.75;5093765;28;20480;-10
2021/10/14 09:48:07;;;;;;;1.77;1.33;;;21.50;49.30;;;25.19;32.99;101650.38;5094133;28;20105;-10
2021/10/14 09:50:43;;;;;;;3.50;1.45;;;21.50;49.20;;;25.22;33.02;101647.47;5074324;28;20088;-10
2021/10/14 09:53:17;;;;;;;3.75;1.75;;;21.50;49.30;;;25.22;33.00;101641.28;5094003;28;20056;-10
2021/10/14 09:55:45;;;;;;;7.25;1.60;;;21.50;49.10;;;25.21;32.94;101659.16;5092614;28;20434;-10
2021/10/14 09:58:11;;;;;;;7.55;1.88;;;21.40;49.10;;;25.23;32.94;101656.38;5093054;28;20046;-10
2021/10/14 10:00:39;;;;;;;3.15;1.52;;;21.50;49.10;;;25.19;32.99;101646.84;5094595;28;20051;-10
2021/10/14 10:03:08;;;;;;;2.20;1.10;;;21.50;49.10;;;25.18;32.92;101643.31;5093847;28;20040;-10
2021/10/14 10:05:37;;;;;;;5.15;2.00;;;21.50;49.10;;;25.22;32.77;101655.50;5093671;28;20381;-10
2021/10/14 10:08:08;;;;;;;3.00;1.20;;;21.50;49.20;;;25.23;32.97;101651.03;5094126;28;20090;-10
2021/10/14 10:10:37;;;;;;;5.22;1.67;;;21.50;49.20;;;25.22;33.16;101652.84;5093607;28;20123;-10
2021/10/14 10:13:04;;;;;;;5.13;1.60;;;21.50;49.50;;;25.26;33.03;101650.81;5094533;28;20036;-10
2021/10/14 10:15:43;;;;;;;4.65;1.60;;;21.50;49.40;;;25.22;33.08;101652.84;5075998;28;20074;-10
2021/10/14 10:18:42;;;;;;;4.13;1.50;;;21.50;49.50;;;25.27;32.97;101652.56;5094281;28;20072;-10